createdAt,value
2023-01-23T00:01:13.273Z,100.00
2023-01-23T00:03:40.092Z,100.00
2023-01-23T00:06:15.045Z,100.00
2023-01-23T00:08:43.240Z,100.00
2023-01-23T00:11:14.501Z,100.00
2023-01-23T00:13:41.242Z,100.00
2023-01-23T00:16:10.682Z,100.00
2023-01-23T00:18:37.397Z,100.00
2023-01-23T00:21:08.916Z,100.00
2023-01-23T00:23:36.499Z,100.00
2023-01-23T00:26:04.233Z,100.00
2023-01-23T00:28:30.811Z,100.00
2023-01-23T00:31:04.892Z,100.00
2023-01-23T00:33:31.902Z,100.00
2023-01-23T00:35:59.895Z,100.00
2023-01-23T00:38:26.722Z,100.00
2023-01-23T00:40:54.607Z,100.00
2023-01-23T00:43:22.294Z,100.00
2023-01-23T00:45:48.844Z,100.00
2023-01-23T00:48:15.614Z,100.00
2023-01-23T00:50:42.216Z,100.00
2023-01-23T00:53:10.467Z,100.00
2023-01-23T00:55:37.064Z,100.00
2023-01-23T00:58:03.665Z,100.00
2023-01-23T01:00:30.332Z,100.00
2023-01-23T01:02:56.977Z,100.00
2023-01-23T01:05:23.571Z,100.00
2023-01-23T01:07:50.120Z,100.00
2023-01-23T01:10:16.997Z,100.00
2023-01-23T01:12:43.763Z,100.00
2023-01-23T01:15:11.075Z,100.00
2023-01-23T01:17:37.632Z,100.00
2023-01-23T01:20:05.782Z,100.00
2023-01-23T01:22:32.728Z,100.00
2023-01-23T01:24:59.362Z,100.00
2023-01-23T01:27:25.956Z,100.00
2023-01-23T01:29:52.748Z,100.00
2023-01-23T01:32:19.495Z,100.00
2023-01-23T01:34:46.071Z,100.00
2023-01-23T01:37:12.687Z,100.00
2023-01-23T01:39:39.279Z,100.00
2023-01-23T01:42:05.912Z,100.00
2023-01-23T01:44:53.934Z,100.00
2023-01-23T01:47:20.496Z,100.00
2023-01-23T01:49:47.843Z,100.00
2023-01-23T01:52:15.794Z,100.00
2023-01-23T01:54:48.360Z,100.00
2023-01-23T01:57:14.863Z,100.00
2023-01-23T01:59:54.411Z,100.00
2023-01-23T02:02:31.638Z,100.00
2023-01-23T02:05:03.609Z,100.00
2023-01-23T02:07:57.274Z,100.00
2023-01-23T02:10:24.340Z,100.00
2023-01-23T02:12:52.573Z,100.00
2023-01-23T02:15:21.697Z,100.00
2023-01-23T02:17:51.621Z,100.00
2023-01-23T02:20:24.931Z,100.00
2023-01-23T02:23:02.174Z,100.00
2023-01-23T02:25:34.857Z,100.00
2023-01-23T02:28:02.367Z,100.00
2023-01-23T02:30:29.049Z,100.00
2023-01-23T02:32:55.632Z,100.00
2023-01-23T02:35:28.077Z,100.00
2023-01-23T02:37:59.964Z,100.00
2023-01-23T02:40:36.672Z,100.00
2023-01-23T02:43:05.876Z,100.00
2023-01-23T02:45:33.459Z,100.00
2023-01-23T02:48:01.874Z,100.00
2023-01-23T02:50:29.205Z,100.00
2023-01-23T02:52:58.146Z,100.00
2023-01-23T02:55:33.086Z,100.00
2023-01-23T02:58:19.743Z,100.00
2023-01-23T03:00:47.231Z,100.00
2023-01-23T03:03:16.000Z,100.00
2023-01-23T03:05:42.719Z,100.00
2023-01-23T03:08:09.460Z,100.00
2023-01-23T03:10:36.186Z,100.00
2023-01-23T03:13:04.646Z,100.00
2023-01-23T03:15:33.355Z,100.00
2023-01-23T03:18:00.438Z,100.00
2023-01-23T03:20:28.304Z,100.00
2023-01-23T03:22:55.064Z,100.00
2023-01-23T03:25:22.051Z,100.00
2023-01-23T03:27:48.918Z,100.00
2023-01-23T03:30:17.881Z,100.00
2023-01-23T03:32:46.102Z,100.00
2023-01-23T03:35:16.791Z,100.00
2023-01-23T03:37:44.327Z,100.00
2023-01-23T03:40:41.275Z,100.00
2023-01-23T03:43:08.268Z,100.00
2023-01-23T03:45:35.079Z,100.00
2023-01-23T03:48:01.734Z,100.00
2023-01-23T03:50:28.329Z,100.00
2023-01-23T03:52:54.981Z,99.37
2023-01-23T03:55:21.630Z,99.52
2023-01-23T03:57:48.414Z,99.10
2023-01-23T04:00:16.912Z,99.21
2023-01-23T04:02:43.639Z,99.03
2023-01-23T04:05:10.554Z,98.76
2023-01-23T04:07:37.099Z,98.59
2023-01-23T04:10:03.813Z,98.98
2023-01-23T04:12:30.411Z,98.74
2023-01-23T04:14:57.158Z,98.45
2023-01-23T04:17:23.728Z,98.53
2023-01-23T04:19:50.258Z,98.91
2023-01-23T04:22:16.818Z,98.50
2023-01-23T04:24:43.343Z,99.01
2023-01-23T04:27:10.115Z,98.70
2023-01-23T04:29:36.696Z,98.57
2023-01-23T04:32:04.750Z,99.00
2023-01-23T04:34:31.474Z,98.38
2023-01-23T04:36:58.070Z,98.44
2023-01-23T04:39:24.691Z,98.18
2023-01-23T04:41:51.268Z,98.62
2023-01-23T04:44:20.713Z,98.11
2023-01-23T04:46:50.048Z,97.94
2023-01-23T04:49:18.744Z,97.90
2023-01-23T04:51:48.069Z,97.54
2023-01-23T04:54:15.621Z,97.66
2023-01-23T04:56:43.208Z,97.68
2023-01-23T04:59:09.966Z,97.76
2023-01-23T05:01:37.161Z,97.86
2023-01-23T05:04:04.521Z,97.37
2023-01-23T05:06:31.226Z,97.78
2023-01-23T05:08:58.166Z,97.37
2023-01-23T05:11:24.848Z,97.13
2023-01-23T05:13:51.463Z,96.89
2023-01-23T05:16:18.127Z,97.24
2023-01-23T05:18:44.717Z,96.85
2023-01-23T05:21:11.311Z,97.17
2023-01-23T05:23:37.928Z,97.29
2023-01-23T05:26:04.693Z,97.46
2023-01-23T05:28:31.275Z,97.43
2023-01-23T05:30:57.991Z,97.04
2023-01-23T05:33:24.599Z,97.04
2023-01-23T05:35:51.183Z,96.56
2023-01-23T05:38:17.745Z,96.85
2023-01-23T05:40:44.388Z,96.88
2023-01-23T05:43:17.299Z,96.86
2023-01-23T05:45:43.916Z,96.91
2023-01-23T05:48:10.574Z,96.92
2023-01-23T05:50:37.154Z,97.25
2023-01-23T05:53:04.389Z,97.45
2023-01-23T05:55:31.084Z,97.48
2023-01-23T05:57:57.717Z,97.49
2023-01-23T06:00:24.411Z,97.09
2023-01-23T06:02:51.046Z,97.24
2023-01-23T06:05:17.798Z,96.92
2023-01-23T06:07:44.446Z,97.17
2023-01-23T06:10:11.264Z,97.25
2023-01-23T06:12:37.850Z,97.42
2023-01-23T06:15:05.103Z,97.09
2023-01-23T06:17:31.687Z,97.22
2023-01-23T06:19:58.765Z,97.29
2023-01-23T06:22:25.383Z,97.41
2023-01-23T06:24:52.742Z,96.98
2023-01-23T06:27:19.554Z,96.86
2023-01-23T06:29:46.212Z,96.92
2023-01-23T06:32:12.889Z,96.76
2023-01-23T06:34:39.707Z,96.45
2023-01-23T06:37:06.350Z,96.31
2023-01-23T06:39:34.283Z,96.06
2023-01-23T06:42:01.028Z,96.29
2023-01-23T06:44:27.922Z,95.95
2023-01-23T06:46:54.462Z,96.17
2023-01-23T06:49:21.249Z,96.06
2023-01-23T06:51:47.820Z,96.21
2023-01-23T06:54:14.471Z,96.21
2023-01-23T06:56:41.058Z,96.13
2023-01-23T06:59:07.758Z,96.16
2023-01-23T07:01:34.364Z,95.82
2023-01-23T07:04:01.063Z,96.20
2023-01-23T07:06:27.614Z,96.37
2023-01-23T07:08:54.205Z,96.40
2023-01-23T07:11:20.883Z,96.66
2023-01-23T07:13:47.462Z,96.44
2023-01-23T07:16:14.102Z,96.76
2023-01-23T07:18:40.749Z,96.54
2023-01-23T07:21:07.580Z,96.81
2023-01-23T07:23:34.625Z,96.65
2023-01-23T07:26:03.734Z,96.42
2023-01-23T07:28:30.870Z,96.19
2023-01-23T07:30:59.089Z,96.47
2023-01-23T07:33:25.956Z,95.98
2023-01-23T07:35:52.600Z,95.74
2023-01-23T07:38:19.702Z,95.65
2023-01-23T07:40:46.313Z,95.42
2023-01-23T07:43:13.015Z,95.06
2023-01-23T07:45:39.609Z,94.65
2023-01-23T07:48:06.214Z,94.37
2023-01-23T07:50:32.853Z,94.07
2023-01-23T07:52:59.434Z,93.90
2023-01-23T07:55:25.981Z,93.20
2023-01-23T07:57:52.559Z,92.88
2023-01-23T08:00:20.043Z,93.18
2023-01-23T08:02:47.778Z,91.89
2023-01-23T08:05:14.415Z,92.48
2023-01-23T08:07:41.030Z,90.83
2023-01-23T08:10:08.994Z,89.89
2023-01-23T08:12:35.536Z,90.75
2023-01-23T08:15:02.288Z,90.08
2023-01-23T08:17:28.876Z,89.21
2023-01-23T08:19:55.519Z,89.11
2023-01-23T08:22:22.387Z,88.97
2023-01-23T08:24:49.098Z,87.54
2023-01-23T08:27:15.828Z,87.51
2023-01-23T08:29:42.568Z,87.23
2023-01-23T08:32:09.325Z,87.03
2023-01-23T08:34:35.931Z,85.21
2023-01-23T08:37:02.466Z,85.01
2023-01-23T08:39:29.139Z,84.27
2023-01-23T08:41:55.695Z,82.96
2023-01-23T08:44:23.369Z,81.73
2023-01-23T08:46:49.979Z,81.45
2023-01-23T08:49:19.578Z,81.60
2023-01-23T08:51:46.722Z,81.58
2023-01-23T08:54:13.390Z,80.91
2023-01-23T08:56:41.258Z,80.29
2023-01-23T08:59:07.918Z,79.71
2023-01-23T09:01:34.636Z,80.12
2023-01-23T09:04:01.224Z,80.96
2023-01-23T09:06:27.839Z,81.25
2023-01-23T09:08:54.512Z,80.26
2023-01-23T09:11:22.793Z,79.75
2023-01-23T09:13:51.210Z,80.07
2023-01-23T09:16:19.615Z,80.36
2023-01-23T09:18:46.340Z,81.04
2023-01-23T09:21:17.468Z,80.23
2023-01-23T09:23:44.248Z,80.84
2023-01-23T09:26:12.917Z,79.77
2023-01-23T09:28:42.155Z,78.06
2023-01-23T09:31:12.497Z,76.53
2023-01-23T09:33:41.001Z,77.10
2023-01-23T09:36:08.364Z,77.94
2023-01-23T09:38:35.448Z,72.36
2023-01-23T09:41:16.337Z,72.35
2023-01-23T09:43:45.946Z,72.16
2023-01-23T09:46:24.773Z,71.96
2023-01-23T09:48:59.319Z,70.20
2023-01-23T09:51:29.098Z,69.02
2023-01-23T09:54:04.681Z,66.39
2023-01-23T09:56:36.363Z,67.54
2023-01-23T09:59:17.000Z,58.68
2023-01-23T10:01:43.926Z,53.62
2023-01-23T10:04:13.283Z,54.64
2023-01-23T10:06:57.313Z,50.88
2023-01-23T10:09:52.698Z,47.02
2023-01-23T10:13:08.018Z,45.64
2023-01-23T10:16:00.640Z,45.62
2023-01-23T10:18:58.000Z,46.78
2023-01-23T10:21:34.514Z,47.88
2023-01-23T10:24:22.938Z,46.01
2023-01-23T10:26:50.611Z,43.60
2023-01-23T10:29:38.960Z,44.30
2023-01-23T10:32:25.743Z,40.25
2023-01-23T10:34:56.070Z,39.52
2023-01-23T10:38:01.779Z,38.30
2023-01-23T10:40:47.728Z,39.59
2023-01-23T10:43:23.407Z,39.74
2023-01-23T10:45:50.388Z,38.40
2023-01-23T10:48:41.509Z,37.31
2023-01-23T10:51:44.829Z,38.17
2023-01-23T10:54:16.940Z,38.09
2023-01-23T10:56:52.410Z,37.86
2023-01-23T10:59:20.895Z,38.95
2023-01-23T11:01:58.214Z,39.31
2023-01-23T11:04:27.734Z,39.82
2023-01-23T11:07:08.441Z,40.57
2023-01-23T11:09:50.330Z,39.97
2023-01-23T11:12:21.707Z,39.03
2023-01-23T11:14:48.443Z,38.21
2023-01-23T11:17:32.555Z,38.04
2023-01-23T11:19:59.870Z,38.16
2023-01-23T11:22:32.872Z,38.25
2023-01-23T11:24:59.993Z,38.33
2023-01-23T11:27:31.219Z,37.36
2023-01-23T11:30:46.064Z,35.69
2023-01-23T11:33:28.304Z,36.51
2023-01-23T11:36:13.250Z,36.24
2023-01-23T11:38:51.991Z,37.30
2023-01-23T11:41:25.015Z,37.71
2023-01-23T11:43:52.906Z,37.35
2023-01-23T11:46:35.072Z,37.54
2023-01-23T11:49:19.867Z,37.58
2023-01-23T11:51:49.441Z,38.10
2023-01-23T11:54:36.700Z,37.39
2023-01-23T11:57:26.023Z,38.71
2023-01-23T11:59:55.163Z,39.72
2023-01-23T12:02:41.240Z,38.31
2023-01-23T12:05:27.576Z,35.82
2023-01-23T12:08:02.806Z,35.18
2023-01-23T12:10:40.018Z,35.86
2023-01-23T12:13:42.129Z,37.19
2023-01-23T12:16:16.503Z,36.57
2023-01-23T12:18:48.645Z,36.52
2023-01-23T12:21:20.827Z,35.55
2023-01-23T12:23:50.086Z,35.92
2023-01-23T12:26:19.806Z,36.18
2023-01-23T12:29:15.203Z,35.19
2023-01-23T12:32:14.237Z,35.07
2023-01-23T12:35:06.599Z,35.37
2023-01-23T12:38:03.962Z,35.47
2023-01-23T12:40:48.500Z,35.76
2023-01-23T12:43:35.068Z,36.50
2023-01-23T12:46:08.475Z,36.95
2023-01-23T12:49:13.967Z,35.56
2023-01-23T12:51:45.995Z,35.81
2023-01-23T12:54:32.859Z,35.49
2023-01-23T12:57:00.648Z,34.61
2023-01-23T12:59:37.254Z,34.61
2023-01-23T13:02:14.210Z,33.06
2023-01-23T13:05:04.037Z,33.40
2023-01-23T13:07:56.935Z,32.14
2023-01-23T13:10:52.934Z,32.81
2023-01-23T13:13:20.689Z,32.92
2023-01-23T13:16:09.247Z,34.15
2023-01-23T13:18:56.973Z,33.35
2023-01-23T13:21:42.383Z,33.96
2023-01-23T13:24:40.652Z,34.46
2023-01-23T13:27:47.890Z,33.52
2023-01-23T13:30:26.669Z,33.89
2023-01-23T13:32:57.807Z,33.73
2023-01-23T13:35:39.596Z,36.66
2023-01-23T13:38:21.615Z,35.14
2023-01-23T13:41:11.775Z,36.30
2023-01-23T13:43:52.409Z,38.17
2023-01-23T14:24:43.920Z,45.07
2023-01-23T14:27:44.497Z,45.51
2023-01-23T14:30:23.946Z,46.39
2023-01-23T14:32:50.600Z,46.78
2023-01-23T14:35:31.086Z,47.98
2023-01-23T14:38:05.137Z,48.57
2023-01-23T14:40:43.505Z,47.47
2023-01-23T14:43:24.006Z,46.90
2023-01-23T14:45:59.773Z,46.26
2023-01-23T14:48:27.697Z,47.56
2023-01-23T14:51:21.814Z,47.87
2023-01-23T14:54:23.089Z,48.26
2023-01-23T14:56:51.171Z,48.91
2023-01-23T14:59:29.913Z,49.49
2023-01-23T15:01:59.933Z,50.71
2023-01-23T15:04:29.170Z,50.53
2023-01-23T15:07:01.071Z,50.45
2023-01-23T15:09:31.500Z,51.75
2023-01-23T15:12:16.167Z,52.22
2023-01-23T15:14:43.204Z,52.39
2023-01-23T15:17:20.951Z,52.82
2023-01-23T15:19:55.397Z,54.06
2023-01-23T15:22:25.945Z,54.96
2023-01-23T15:24:52.843Z,54.87
2023-01-23T15:27:33.254Z,55.08
2023-01-23T15:30:48.632Z,55.70
2023-01-23T15:33:31.047Z,55.79
2023-01-23T15:36:06.938Z,56.02
2023-01-23T15:38:34.183Z,56.66
2023-01-23T15:41:01.037Z,56.43
2023-01-23T15:43:27.627Z,56.99
2023-01-23T15:45:55.753Z,57.46
2023-01-23T15:48:24.835Z,57.60
2023-01-23T15:50:51.487Z,58.00
2023-01-23T15:53:18.557Z,57.97
2023-01-23T15:55:45.558Z,58.00
2023-01-23T15:58:15.002Z,58.51
2023-01-23T16:00:41.888Z,58.42
2023-01-23T16:03:08.684Z,58.97
2023-01-23T16:05:37.312Z,58.61
2023-01-23T16:08:06.380Z,58.39
2023-01-23T16:10:38.027Z,58.73
2023-01-23T16:13:05.284Z,60.03
2023-01-23T16:15:33.183Z,59.46
2023-01-23T16:18:00.864Z,59.38
2023-01-23T16:20:31.372Z,60.46
2023-01-23T16:23:01.915Z,61.13
2023-01-23T16:25:44.604Z,60.49
2023-01-23T16:28:14.089Z,60.97
2023-01-23T16:30:40.908Z,61.14
2023-01-23T16:33:07.743Z,61.94
2023-01-23T16:35:34.561Z,61.98
2023-01-23T16:38:01.270Z,62.70
2023-01-23T16:40:30.774Z,62.02
2023-01-23T16:42:58.156Z,62.57
2023-01-23T16:45:27.444Z,62.70
2023-01-23T16:47:54.390Z,62.46
2023-01-23T16:50:32.015Z,62.29
2023-01-23T16:53:05.502Z,62.51
2023-01-23T16:55:39.099Z,62.97
2023-01-23T16:58:07.803Z,62.92
2023-01-23T17:00:35.629Z,63.54
2023-01-23T17:03:07.915Z,63.65
2023-01-23T17:05:34.566Z,63.95
2023-01-23T17:08:01.310Z,64.44
2023-01-23T17:10:41.246Z,63.92
2023-01-23T17:13:14.005Z,64.92
2023-01-23T17:15:41.053Z,64.82
2023-01-23T17:18:32.620Z,65.75
2023-01-23T17:20:59.437Z,65.29
2023-01-23T17:23:26.312Z,65.34
2023-01-23T17:26:00.684Z,66.54
2023-01-23T17:28:28.149Z,67.12
2023-01-23T17:30:55.357Z,66.63
2023-01-23T17:33:25.003Z,67.08
2023-01-23T17:35:52.728Z,66.21
2023-01-23T17:38:22.935Z,67.07
2023-01-23T17:40:50.120Z,67.44
2023-01-23T17:43:19.213Z,67.94
2023-01-23T17:45:48.542Z,67.47
2023-01-23T17:48:17.723Z,67.85
2023-01-23T17:50:46.465Z,68.75
2023-01-23T17:53:15.890Z,69.06
2023-01-23T17:55:46.591Z,69.02
2023-01-23T17:58:14.235Z,69.81
2023-01-23T18:00:42.804Z,69.50
2023-01-23T18:03:14.138Z,69.50
2023-01-23T18:05:40.901Z,69.91
2023-01-23T18:08:10.251Z,68.67
2023-01-23T18:10:37.592Z,69.62
2023-01-23T18:13:37.006Z,69.54
2023-01-23T18:16:22.699Z,69.41
2023-01-23T18:18:57.554Z,70.47
2023-01-23T18:21:24.363Z,70.14
2023-01-23T18:23:51.256Z,70.57
2023-01-23T18:26:38.434Z,70.70
2023-01-23T18:29:23.133Z,70.28
2023-01-23T18:31:49.742Z,70.38
2023-01-23T18:34:47.251Z,70.35
2023-01-23T18:37:36.281Z,70.71
2023-01-23T18:40:21.279Z,70.85
2023-01-23T18:42:57.599Z,70.94
2023-01-23T18:45:27.517Z,70.48
2023-01-23T18:47:54.940Z,70.44
2023-01-23T18:50:27.003Z,70.65
2023-01-23T18:53:30.390Z,70.10
2023-01-23T18:56:23.106Z,70.63
2023-01-23T18:59:06.247Z,70.41
2023-01-23T19:02:03.557Z,70.56
2023-01-23T19:04:49.781Z,69.88
2023-01-23T19:07:18.872Z,69.78
2023-01-23T19:09:47.300Z,70.19
2023-01-23T19:12:52.168Z,70.53
2023-01-23T19:15:28.954Z,70.58
2023-01-23T19:18:40.804Z,71.14
2023-01-23T19:21:25.057Z,70.65
2023-01-23T19:24:02.874Z,70.72
2023-01-23T19:26:33.109Z,71.22
2023-01-23T19:29:15.521Z,71.21
2023-01-23T19:32:03.062Z,72.05
2023-01-23T19:34:30.543Z,71.26
2023-01-23T19:36:57.125Z,72.34
2023-01-23T19:39:23.739Z,72.63
2023-01-23T19:41:50.711Z,72.10
2023-01-23T19:44:19.687Z,72.28
2023-01-23T19:46:46.691Z,72.13
2023-01-23T19:49:13.899Z,72.29
2023-01-23T19:51:43.329Z,72.18
2023-01-23T19:54:14.449Z,72.74
2023-01-23T19:56:42.279Z,71.98
2023-01-23T19:59:09.134Z,72.07
2023-01-23T20:01:40.108Z,71.76
2023-01-23T20:04:11.928Z,72.26
2023-01-23T20:06:40.523Z,72.26
2023-01-23T20:09:08.605Z,72.67
2023-01-23T20:11:36.184Z,73.48
2023-01-23T20:14:03.633Z,73.27
2023-01-23T20:16:30.415Z,73.78
2023-01-23T20:18:57.134Z,74.21
2023-01-23T20:21:25.187Z,74.53
2023-01-23T20:23:52.282Z,74.76
2023-01-23T20:26:21.113Z,74.12
2023-01-23T20:28:49.736Z,74.73
2023-01-23T20:31:17.269Z,74.03
2023-01-23T20:33:44.035Z,75.48
2023-01-23T20:36:11.932Z,76.01
2023-01-23T20:38:39.687Z,76.42
2023-01-23T20:41:08.515Z,75.29
2023-01-23T20:43:35.339Z,76.09
2023-01-23T20:46:06.908Z,76.05
2023-01-23T20:48:40.176Z,75.35
2023-01-23T20:51:09.654Z,75.69
2023-01-23T20:53:39.647Z,76.63
2023-01-23T20:56:09.525Z,75.95
2023-01-23T20:58:56.797Z,76.69
2023-01-23T21:01:26.361Z,76.92
2023-01-23T21:03:53.011Z,77.06
2023-01-23T21:06:20.060Z,78.11
2023-01-23T21:08:47.221Z,77.40
2023-01-23T21:11:19.335Z,78.71
2023-01-23T21:13:51.220Z,78.55
2023-01-23T21:16:18.416Z,78.87
2023-01-23T21:18:46.888Z,78.67
2023-01-23T21:21:16.029Z,79.16
2023-01-23T21:23:43.498Z,79.54
2023-01-23T21:26:10.129Z,79.21
2023-01-23T21:28:36.864Z,79.71
2023-01-23T21:31:30.606Z,80.08
2023-01-23T21:33:59.334Z,80.41
2023-01-23T21:36:25.960Z,80.93
2023-01-23T21:38:53.742Z,80.64
2023-01-23T21:41:21.564Z,80.78
2023-01-23T21:43:48.360Z,81.56
2023-01-23T21:46:15.528Z,81.61
2023-01-23T21:48:42.170Z,80.97
2023-01-23T21:51:14.377Z,80.56
2023-01-23T21:53:43.128Z,80.46
2023-01-23T21:56:10.844Z,81.30
2023-01-23T21:58:37.714Z,81.54
2023-01-23T22:01:25.603Z,82.33
2023-01-23T22:03:52.706Z,82.54
2023-01-23T22:06:19.757Z,82.39
2023-01-23T22:08:46.388Z,82.36
2023-01-23T22:11:13.027Z,82.17
2023-01-23T22:13:39.920Z,82.20
2023-01-23T22:16:07.011Z,82.66
2023-01-23T22:18:34.174Z,83.08
2023-01-23T22:21:03.205Z,83.21
2023-01-23T22:23:30.148Z,83.37
2023-01-23T22:25:59.331Z,83.64
2023-01-23T22:28:26.404Z,83.94
2023-01-23T22:30:53.083Z,83.60
2023-01-23T22:33:20.378Z,83.51
2023-01-23T22:35:48.265Z,84.10
2023-01-23T22:38:16.160Z,84.06
2023-01-23T22:40:43.152Z,83.94
2023-01-23T22:43:10.303Z,83.92
2023-01-23T22:45:36.979Z,84.31
2023-01-23T22:48:03.622Z,84.13
2023-01-23T22:50:30.240Z,84.10
2023-01-23T22:52:56.768Z,84.31
2023-01-23T22:55:23.737Z,84.30
2023-01-23T22:57:52.928Z,85.07
2023-01-23T23:00:20.244Z,84.63
2023-01-23T23:02:47.062Z,84.63
2023-01-23T23:05:13.952Z,85.54
2023-01-23T23:07:40.689Z,85.75
2023-01-23T23:10:09.285Z,85.51
2023-01-23T23:12:35.874Z,85.38
2023-01-23T23:15:03.081Z,85.03
2023-01-23T23:17:30.482Z,85.80
2023-01-23T23:19:57.042Z,85.34
2023-01-23T23:22:23.702Z,85.83
2023-01-23T23:24:50.244Z,86.10
2023-01-23T23:27:16.907Z,86.15
2023-01-23T23:29:43.433Z,85.51
2023-01-23T23:32:10.300Z,85.76
2023-01-23T23:34:37.426Z,85.43
2023-01-23T23:37:04.626Z,85.88
2023-01-23T23:39:31.194Z,85.87
2023-01-23T23:41:58.675Z,86.19
2023-01-23T23:44:25.370Z,86.11
2023-01-23T23:46:51.961Z,86.48
2023-01-23T23:49:18.558Z,86.70
2023-01-23T23:51:45.135Z,86.30
2023-01-23T23:54:11.908Z,86.25
2023-01-23T23:56:38.454Z,86.21
2023-01-23T23:59:05.097Z,85.81
